createdAt,value
2023-04-18T00:00:27.156Z,88.45
2023-04-18T00:02:55.033Z,88.75
2023-04-18T00:05:21.989Z,89.59
2023-04-18T00:07:48.596Z,90.39
2023-04-18T00:10:15.403Z,91.39
2023-04-18T00:12:42.895Z,91.61
2023-04-18T00:15:09.710Z,91.90
2023-04-18T00:17:38.357Z,92.24
2023-04-18T00:20:07.835Z,91.68
2023-04-18T00:22:34.294Z,91.49
2023-04-18T00:25:00.733Z,91.28
2023-04-18T00:27:27.160Z,90.97
2023-04-18T00:29:53.579Z,90.67
2023-04-18T00:32:20.093Z,90.00
2023-04-18T00:34:46.509Z,89.42
2023-04-18T00:37:12.995Z,89.01
2023-04-18T00:39:41.675Z,87.32
2023-04-18T00:42:08.597Z,87.26
2023-04-18T00:44:35.041Z,86.44
2023-04-18T00:47:01.505Z,86.03
2023-04-18T00:49:28.395Z,85.23
2023-04-18T00:51:56.413Z,85.01
2023-04-18T00:54:24.398Z,85.00
2023-04-18T00:56:51.315Z,84.41
2023-04-18T00:59:18.898Z,84.18
2023-04-18T01:01:45.457Z,84.24
2023-04-18T01:04:12.588Z,83.73
2023-04-18T01:06:40.729Z,83.69
2023-04-18T01:09:07.199Z,83.55
2023-04-18T01:11:33.653Z,83.39
2023-04-18T01:14:05.500Z,82.96
2023-04-18T01:16:36.762Z,83.04
2023-04-18T01:19:04.782Z,83.16
2023-04-18T01:21:36.037Z,83.66
2023-04-18T01:24:13.467Z,84.12
2023-04-18T01:26:43.617Z,83.89
2023-04-18T01:29:10.688Z,83.95
2023-04-18T01:31:38.120Z,84.75
2023-04-18T01:34:05.448Z,84.43
2023-04-18T01:36:32.633Z,84.51
2023-04-18T01:38:59.683Z,83.99
2023-04-18T01:41:28.934Z,84.14
2023-04-18T01:43:55.427Z,83.68
2023-04-18T01:46:21.917Z,83.82
2023-04-18T01:48:48.431Z,84.53
2023-04-18T01:51:14.919Z,83.71
2023-04-18T01:53:41.919Z,84.25
2023-04-18T01:56:10.096Z,84.50
2023-04-18T01:58:37.218Z,84.16
2023-04-18T02:01:04.043Z,84.71
2023-04-18T02:03:30.944Z,84.73
2023-04-18T02:05:57.549Z,84.58
2023-04-18T02:08:24.060Z,85.56
2023-04-18T02:10:50.708Z,85.05
2023-04-18T02:13:17.153Z,84.83
2023-04-18T02:15:45.896Z,85.01
2023-04-18T02:18:15.685Z,85.18
2023-04-18T02:20:42.060Z,85.71
2023-04-18T02:23:08.496Z,85.59
2023-04-18T02:25:34.935Z,85.24
2023-04-18T02:28:01.531Z,85.67
2023-04-18T02:30:30.668Z,85.75
2023-04-18T02:32:57.286Z,85.50
2023-04-18T02:35:24.427Z,85.45
2023-04-18T02:37:50.830Z,85.76
2023-04-18T02:40:17.927Z,86.31
2023-04-18T02:42:44.438Z,86.24
2023-04-18T02:45:14.174Z,85.91
2023-04-18T02:47:53.889Z,86.27
2023-04-18T02:50:22.443Z,86.81
2023-04-18T02:52:49.015Z,86.92
2023-04-18T02:55:17.553Z,86.11
2023-04-18T02:57:44.959Z,86.04
2023-04-18T03:00:14.339Z,86.47
2023-04-18T03:02:58.754Z,86.45
2023-04-18T03:05:34.802Z,86.78
2023-04-18T03:08:03.956Z,86.40
2023-04-18T03:10:31.229Z,87.13
2023-04-18T03:12:57.686Z,86.85
2023-04-18T03:15:24.800Z,86.82
2023-04-18T03:17:52.484Z,86.74
2023-04-18T03:20:21.071Z,86.95
2023-04-18T03:22:47.467Z,86.76
2023-04-18T03:25:17.842Z,87.81
2023-04-18T03:27:49.700Z,87.65
2023-04-18T03:30:18.054Z,87.35
2023-04-18T03:32:50.119Z,87.50
2023-04-18T03:35:16.564Z,87.12
2023-04-18T03:37:43.168Z,87.59
2023-04-18T03:40:11.499Z,87.34
2023-04-18T03:42:37.896Z,86.90
2023-04-18T03:45:04.573Z,87.28
2023-04-18T03:47:33.578Z,86.37
2023-04-18T03:50:00.121Z,87.01
2023-04-18T03:52:29.195Z,86.64
2023-04-18T03:54:56.274Z,87.01
2023-04-18T03:57:26.385Z,87.26
2023-04-18T03:59:53.734Z,87.23
2023-04-18T04:02:21.252Z,86.85
2023-04-18T04:04:49.888Z,86.45
2023-04-18T04:07:16.420Z,86.68
2023-04-18T04:09:42.861Z,86.40
2023-04-18T04:12:09.337Z,86.58
2023-04-18T04:14:35.942Z,86.23
2023-04-18T04:17:02.828Z,87.00
2023-04-18T04:19:30.529Z,86.54
2023-04-18T04:22:07.294Z,86.36
2023-04-18T04:24:33.892Z,86.48
2023-04-18T04:27:01.491Z,86.91
2023-04-18T04:29:29.028Z,86.12
2023-04-18T04:31:59.165Z,85.56
2023-04-18T04:34:31.623Z,85.88
2023-04-18T04:37:00.787Z,86.28
2023-04-18T04:39:28.616Z,86.69
2023-04-18T04:42:19.388Z,86.93
2023-04-18T04:44:55.332Z,87.05
2023-04-18T04:47:22.555Z,86.84
2023-04-18T04:49:49.057Z,86.59
2023-04-18T04:52:15.617Z,86.96
2023-04-18T04:54:43.272Z,86.74
2023-04-18T04:57:11.786Z,87.04
2023-04-18T04:59:38.350Z,87.34
2023-04-18T05:02:05.638Z,87.12
2023-04-18T05:04:32.356Z,86.70
2023-04-18T05:06:59.053Z,87.08
2023-04-18T05:09:26.059Z,87.15
2023-04-18T05:11:52.475Z,87.06
2023-04-18T05:14:20.673Z,87.03
2023-04-18T05:16:47.581Z,86.34
2023-04-18T05:19:14.018Z,87.22
2023-04-18T05:21:40.829Z,86.78
2023-04-18T05:24:07.299Z,87.01
2023-04-18T05:26:33.717Z,87.08
2023-04-18T05:29:00.670Z,87.00
2023-04-18T05:31:27.412Z,86.62
2023-04-18T05:33:53.855Z,87.17
2023-04-18T05:36:20.415Z,87.22
2023-04-18T05:38:46.887Z,87.64
2023-04-18T05:41:13.297Z,87.38
2023-04-18T05:43:40.186Z,87.39
2023-04-18T05:46:08.946Z,87.66
2023-04-18T05:48:35.360Z,87.47
2023-04-18T05:51:01.931Z,87.66
2023-04-18T05:53:28.354Z,87.87
2023-04-18T05:55:55.063Z,87.63
2023-04-18T05:58:21.690Z,87.44
2023-04-18T06:00:48.182Z,87.46
2023-04-18T06:03:14.757Z,87.67
2023-04-18T06:05:41.493Z,87.67
2023-04-18T06:08:08.024Z,87.67
2023-04-18T06:10:34.450Z,87.94
2023-04-18T06:13:01.307Z,87.64
2023-04-18T06:15:27.822Z,87.76
2023-04-18T06:17:54.384Z,87.62
2023-04-18T06:20:23.018Z,88.09
2023-04-18T06:22:49.478Z,87.96
2023-04-18T06:25:16.063Z,87.51
2023-04-18T06:27:42.575Z,87.38
2023-04-18T06:30:09.370Z,87.32
2023-04-18T06:32:35.935Z,87.50
2023-04-18T06:35:02.418Z,86.55
2023-04-18T06:37:29.111Z,86.70
2023-04-18T06:39:55.582Z,86.54
2023-04-18T06:42:22.648Z,86.29
2023-04-18T06:44:49.680Z,86.29
2023-04-18T06:47:16.308Z,85.99
2023-04-18T06:49:42.696Z,85.46
2023-04-18T06:52:09.090Z,84.84
2023-04-18T06:54:35.494Z,85.75
2023-04-18T06:57:03.680Z,84.78
2023-04-18T06:59:30.630Z,84.91
2023-04-18T07:01:57.065Z,85.71
2023-04-18T07:04:23.627Z,85.18
2023-04-18T07:06:51.756Z,85.26
2023-04-18T07:09:18.172Z,84.70
2023-04-18T07:11:44.709Z,84.83
2023-04-18T07:14:12.263Z,84.97
2023-04-18T07:16:38.979Z,85.47
2023-04-18T07:19:05.883Z,85.06
2023-04-18T07:21:32.780Z,85.51
2023-04-18T07:23:59.156Z,85.94
2023-04-18T07:26:27.511Z,86.34
2023-04-18T07:28:53.983Z,85.90
2023-04-18T07:31:20.523Z,85.48
2023-04-18T07:33:47.012Z,86.00
2023-04-18T07:36:13.561Z,84.95
2023-04-18T07:38:40.070Z,84.26
2023-04-18T07:41:06.548Z,84.75
2023-04-18T07:43:33.055Z,84.56
2023-04-18T07:45:59.492Z,83.30
2023-04-18T07:48:26.019Z,80.93
2023-04-18T07:50:52.976Z,78.56
2023-04-18T07:53:19.774Z,78.84
2023-04-18T07:55:46.506Z,79.75
2023-04-18T07:58:13.055Z,79.35
2023-04-18T08:00:39.747Z,79.81
2023-04-18T08:03:07.636Z,79.67
2023-04-18T08:05:34.759Z,79.82
2023-04-18T08:08:01.511Z,78.71
2023-04-18T08:10:28.105Z,79.26
2023-04-18T08:12:54.604Z,78.84
2023-04-18T08:15:21.191Z,77.01
2023-04-18T08:17:49.121Z,75.83
2023-04-18T08:20:15.797Z,75.72
2023-04-18T08:22:57.683Z,68.11
2023-04-18T08:25:28.985Z,71.50
2023-04-18T08:27:55.906Z,71.91
2023-04-18T08:30:22.435Z,73.86
2023-04-18T08:32:49.630Z,73.86
2023-04-18T08:35:16.420Z,74.30
2023-04-18T08:37:43.309Z,75.91
2023-04-18T08:40:09.986Z,76.31
2023-04-18T08:42:38.351Z,77.64
2023-04-18T08:45:06.859Z,77.38
2023-04-18T08:47:35.123Z,78.60
2023-04-18T08:50:01.939Z,79.04
2023-04-18T08:52:30.737Z,78.70
2023-04-18T08:54:58.678Z,76.15
2023-04-18T08:57:27.976Z,75.08
2023-04-18T08:59:55.159Z,76.69
2023-04-18T09:02:23.266Z,76.08
2023-04-18T09:04:52.668Z,75.12
2023-04-18T09:07:28.512Z,74.91
2023-04-18T09:09:59.276Z,73.94
2023-04-18T09:12:27.654Z,75.29
2023-04-18T09:15:09.833Z,73.89
2023-04-18T09:17:38.729Z,74.91
2023-04-18T09:20:06.330Z,74.94
2023-04-18T09:22:50.272Z,74.68
2023-04-18T09:25:42.721Z,74.75
2023-04-18T09:28:31.745Z,75.86
2023-04-18T09:31:18.908Z,75.27
2023-04-18T09:33:54.514Z,75.80
2023-04-18T09:36:28.191Z,73.20
2023-04-18T09:38:57.002Z,73.80
2023-04-18T09:41:24.336Z,73.55
2023-04-18T09:44:10.958Z,71.59
2023-04-18T09:46:39.905Z,73.04
2023-04-18T09:49:07.395Z,73.21
2023-04-18T09:51:35.266Z,72.74
2023-04-18T09:54:04.941Z,72.23
2023-04-18T09:56:34.339Z,72.86
2023-04-18T09:59:09.128Z,73.01
2023-04-18T10:01:36.490Z,72.44
2023-04-18T10:04:06.458Z,73.60
2023-04-18T10:06:39.837Z,73.83
2023-04-18T10:09:09.296Z,73.10
2023-04-18T10:11:36.443Z,73.11
2023-04-18T10:14:07.660Z,72.46
2023-04-18T10:16:36.280Z,73.43
2023-04-18T10:19:26.838Z,74.41
2023-04-18T10:21:54.764Z,74.25
2023-04-18T10:24:52.742Z,72.87
2023-04-18T10:27:47.829Z,72.52
2023-04-18T10:30:15.239Z,72.05
2023-04-18T10:32:41.759Z,72.28
2023-04-18T10:35:08.446Z,72.67
2023-04-18T10:37:34.891Z,73.18
2023-04-18T10:40:05.987Z,71.84
2023-04-18T10:42:47.601Z,70.02
2023-04-18T10:45:22.219Z,70.25
2023-04-18T10:47:49.266Z,69.59
2023-04-18T10:50:16.894Z,68.89
2023-04-18T10:52:43.419Z,67.53
2023-04-18T10:55:20.732Z,65.70
2023-04-18T10:57:49.038Z,66.18
2023-04-18T11:00:17.490Z,64.94
2023-04-18T11:02:53.711Z,65.66
2023-04-18T11:05:23.421Z,65.65
2023-04-18T11:07:49.934Z,65.39
2023-04-18T11:10:20.248Z,65.63
2023-04-18T11:12:47.341Z,67.00
2023-04-18T11:15:22.023Z,66.48
2023-04-18T11:18:02.974Z,66.25
2023-04-18T11:20:40.877Z,63.28
2023-04-18T11:23:20.095Z,63.84
2023-04-18T11:25:49.400Z,64.41
2023-04-18T11:28:20.872Z,65.35
2023-04-18T11:30:47.558Z,66.08
2023-04-18T11:33:14.868Z,64.99
2023-04-18T11:35:43.204Z,66.48
2023-04-18T11:38:12.984Z,65.17
2023-04-18T11:40:39.682Z,62.08
2023-04-18T11:43:07.283Z,61.60
2023-04-18T11:45:33.892Z,60.37
2023-04-18T11:48:01.027Z,61.48
2023-04-18T11:50:27.661Z,62.24
2023-04-18T11:52:56.430Z,64.08
2023-04-18T11:55:24.849Z,65.46
2023-04-18T11:57:53.721Z,65.02
2023-04-18T12:00:31.309Z,65.25
2023-04-18T12:02:59.208Z,66.25
2023-04-18T12:05:28.194Z,66.49
2023-04-18T12:07:55.925Z,67.69
2023-04-18T12:10:22.303Z,67.25
2023-04-18T12:12:53.881Z,66.75
2023-04-18T12:15:23.506Z,66.48
2023-04-18T12:17:51.714Z,65.53
2023-04-18T12:20:18.403Z,66.36
2023-04-18T12:22:49.981Z,67.52
2023-04-18T12:25:26.911Z,67.30
2023-04-18T12:27:55.035Z,68.11
2023-04-18T12:30:23.353Z,68.43
2023-04-18T12:32:51.341Z,67.25
2023-04-18T12:35:19.363Z,66.87
2023-04-18T12:37:52.047Z,67.03
2023-04-18T12:40:19.944Z,66.84
2023-04-18T12:42:47.348Z,66.39
2023-04-18T12:45:15.107Z,67.18
2023-04-18T12:47:43.795Z,67.73
2023-04-18T12:50:12.257Z,67.34
2023-04-18T12:52:40.222Z,67.07
2023-04-18T12:55:08.170Z,69.45
2023-04-18T12:57:34.826Z,69.53
2023-04-18T13:00:01.541Z,69.80
2023-04-18T13:02:29.249Z,69.42
2023-04-18T13:04:57.306Z,70.19
2023-04-18T13:07:24.854Z,70.58
2023-04-18T13:09:51.299Z,70.58
2023-04-18T13:12:17.685Z,71.47
2023-04-18T13:14:44.086Z,71.65
2023-04-18T13:17:10.546Z,72.11
2023-04-18T13:19:37.017Z,71.72
2023-04-18T13:22:04.557Z,71.67
2023-04-18T13:24:30.965Z,72.22
2023-04-18T13:26:57.419Z,70.18
2023-04-18T13:29:23.846Z,70.65
2023-04-18T13:31:50.491Z,70.27
2023-04-18T13:34:17.218Z,71.15
2023-04-18T13:36:43.601Z,70.82
2023-04-18T13:39:10.629Z,71.59
2023-04-18T13:41:37.032Z,71.72
2023-04-18T13:44:03.526Z,70.21
2023-04-18T13:46:30.895Z,70.33
2023-04-18T13:48:57.433Z,70.77
2023-04-18T13:51:23.820Z,68.85
2023-04-18T13:53:51.510Z,68.47
2023-04-18T13:56:17.909Z,68.26
2023-04-18T13:58:44.342Z,67.42
2023-04-18T14:01:11.648Z,67.69
2023-04-18T14:03:39.895Z,65.72
2023-04-18T14:06:07.959Z,64.43
2023-04-18T14:08:34.376Z,64.01
2023-04-18T14:11:00.797Z,64.59
2023-04-18T14:13:27.189Z,64.31
2023-04-18T14:15:54.024Z,64.33
2023-04-18T14:18:21.675Z,64.70
2023-04-18T14:20:48.578Z,64.40
2023-04-18T14:23:15.946Z,64.58
2023-04-18T14:25:43.106Z,64.84
2023-04-18T14:28:11.349Z,64.79
2023-04-18T14:30:39.345Z,65.61
2023-04-18T14:33:06.642Z,66.53
2023-04-18T14:35:33.262Z,64.48
2023-04-18T14:37:59.699Z,63.47
2023-04-18T14:40:27.062Z,62.98
2023-04-18T14:42:53.478Z,63.49
2023-04-18T14:45:19.909Z,62.80
2023-04-18T14:47:46.412Z,61.97
2023-04-18T14:50:12.892Z,60.53
2023-04-18T14:52:40.320Z,61.66
2023-04-18T14:55:08.390Z,61.61
2023-04-18T14:57:36.533Z,60.69
2023-04-18T15:00:10.429Z,60.96
2023-04-18T15:02:37.440Z,60.72
2023-04-18T15:05:04.956Z,60.95
2023-04-18T15:07:31.601Z,60.14
2023-04-18T15:09:58.045Z,60.25
2023-04-18T15:12:24.776Z,60.60
2023-04-18T15:14:51.529Z,59.90
2023-04-18T15:17:18.008Z,59.73
2023-04-18T15:19:44.541Z,58.38
2023-04-18T15:22:11.043Z,58.73
2023-04-18T15:24:37.422Z,59.79
2023-04-18T15:27:04.008Z,61.19
2023-04-18T15:29:30.454Z,60.66
2023-04-18T15:31:56.875Z,59.99
2023-04-18T15:34:23.717Z,59.71
2023-04-18T15:36:50.415Z,59.01
2023-04-18T15:39:20.137Z,58.76
2023-04-18T15:41:47.211Z,59.11
2023-04-18T15:44:13.786Z,58.75
2023-04-18T15:46:40.473Z,57.93
2023-04-18T15:49:07.384Z,57.58
2023-04-18T15:51:33.816Z,58.41
2023-04-18T15:54:00.276Z,58.64
2023-04-18T15:56:32.462Z,58.12
2023-04-18T15:59:00.137Z,58.14
2023-04-18T16:01:26.736Z,57.60
2023-04-18T16:03:53.189Z,56.91
2023-04-18T16:06:23.236Z,56.86
2023-04-18T16:08:49.964Z,57.80
2023-04-18T16:11:16.451Z,57.79
2023-04-18T16:13:43.234Z,58.44
2023-04-18T16:16:09.808Z,59.08
2023-04-18T16:18:36.324Z,59.02
2023-04-18T16:21:02.844Z,58.81
2023-04-18T16:23:31.846Z,60.46
2023-04-18T16:25:58.342Z,60.24
2023-04-18T16:28:24.749Z,60.37
2023-04-18T16:30:52.069Z,60.42
2023-04-18T16:33:24.406Z,60.95
2023-04-18T16:35:51.502Z,61.38
2023-04-18T16:38:17.993Z,60.31
2023-04-18T16:40:44.423Z,60.32
2023-04-18T16:43:10.800Z,59.10
2023-04-18T16:45:37.207Z,59.04
2023-04-18T16:48:03.891Z,59.25
2023-04-18T16:50:30.383Z,59.91
2023-04-18T16:52:56.818Z,59.70
2023-04-18T16:55:23.318Z,59.27
2023-04-18T16:57:50.840Z,59.15
2023-04-18T17:00:17.474Z,60.60
2023-04-18T17:02:44.183Z,59.73
2023-04-18T17:05:11.112Z,60.61
2023-04-18T17:07:37.608Z,61.07
2023-04-18T17:10:04.340Z,61.14
2023-04-18T17:12:31.255Z,61.28
2023-04-18T17:14:57.634Z,61.65
2023-04-18T17:17:24.103Z,62.17
2023-04-18T17:19:50.756Z,61.91
2023-04-18T17:22:17.303Z,62.42
2023-04-18T17:24:43.699Z,63.14
2023-04-18T17:27:10.200Z,63.35
2023-04-18T17:29:37.218Z,63.54
2023-04-18T17:32:04.012Z,63.08
2023-04-18T17:34:30.754Z,63.40
2023-04-18T17:36:57.174Z,63.43
2023-04-18T17:39:23.543Z,63.58
2023-04-18T17:41:50.125Z,64.08
2023-04-18T17:44:16.620Z,64.05
2023-04-18T17:46:42.997Z,64.76
2023-04-18T17:49:09.789Z,64.10
2023-04-18T17:51:36.298Z,64.69
2023-04-18T17:54:02.891Z,65.04
2023-04-18T17:56:30.389Z,65.06
2023-04-18T17:58:57.140Z,65.48
2023-04-18T18:01:24.670Z,65.69
2023-04-18T18:03:53.490Z,65.82
2023-04-18T18:06:20.161Z,65.90
2023-04-18T18:08:46.591Z,66.22
2023-04-18T18:11:13.126Z,66.37
2023-04-18T18:13:39.518Z,66.38
2023-04-18T18:16:06.955Z,66.89
2023-04-18T18:18:34.395Z,67.14
2023-04-18T18:21:00.822Z,67.43
2023-04-18T18:23:27.311Z,67.68
2023-04-18T18:25:53.689Z,67.85
2023-04-18T18:28:20.255Z,67.84
2023-04-18T18:30:46.693Z,68.38
2023-04-18T18:33:13.082Z,68.21
2023-04-18T18:35:39.475Z,68.43
2023-04-18T18:38:05.982Z,68.85
2023-04-18T18:40:32.432Z,69.19
2023-04-18T18:42:59.356Z,69.83
2023-04-18T18:45:25.872Z,69.91
2023-04-18T18:47:52.427Z,70.65
2023-04-18T18:50:18.897Z,70.53
2023-04-18T18:52:45.405Z,70.33
2023-04-18T18:55:12.086Z,70.62
2023-04-18T18:57:38.541Z,70.69
2023-04-18T19:00:10.909Z,71.15
2023-04-18T19:02:38.766Z,71.42
2023-04-18T19:05:05.996Z,71.96
2023-04-18T19:07:32.428Z,72.65
2023-04-18T19:10:00.478Z,72.72
2023-04-18T19:12:28.117Z,73.37
2023-04-18T19:14:54.587Z,73.65
2023-04-18T19:17:24.509Z,73.97
2023-04-18T19:19:52.019Z,74.26
2023-04-18T19:22:18.545Z,74.49
2023-04-18T19:24:44.981Z,74.90
2023-04-18T19:27:11.409Z,75.16
2023-04-18T19:29:39.536Z,74.56
2023-04-18T19:32:06.381Z,74.50
2023-04-18T19:34:32.905Z,74.06
2023-04-18T19:36:59.961Z,74.53
2023-04-18T19:39:26.704Z,74.28
2023-04-18T19:41:53.203Z,75.48
2023-04-18T19:44:19.652Z,74.66
2023-04-18T19:46:46.066Z,75.61
2023-04-18T19:49:12.913Z,75.83
2023-04-18T19:51:40.298Z,75.76
2023-04-18T19:54:06.827Z,76.10
2023-04-18T19:56:33.273Z,75.67
2023-04-18T19:58:59.876Z,76.37
2023-04-18T20:01:26.305Z,76.31
2023-04-18T20:03:53.983Z,76.61
2023-04-18T20:06:20.513Z,76.81
2023-04-18T20:08:47.011Z,77.16
2023-04-18T20:11:14.187Z,77.20
2023-04-18T20:13:41.265Z,77.03
2023-04-18T20:16:08.909Z,76.79
2023-04-18T20:18:37.731Z,76.43
2023-04-18T20:21:06.796Z,76.42
2023-04-18T20:23:33.974Z,76.47
2023-04-18T20:26:00.454Z,76.34
2023-04-18T20:28:26.950Z,76.57
2023-04-18T20:30:53.386Z,76.89
2023-04-18T20:33:19.890Z,76.78
2023-04-18T20:35:46.677Z,76.70
2023-04-18T20:38:14.314Z,77.13
2023-04-18T20:40:44.753Z,77.32
2023-04-18T20:43:12.609Z,77.66
2023-04-18T20:45:42.681Z,77.65
2023-04-18T20:48:09.528Z,78.09
2023-04-18T20:50:36.024Z,78.22
2023-04-18T20:53:03.960Z,78.31
2023-04-18T20:55:30.422Z,78.48
2023-04-18T20:57:56.967Z,78.11
2023-04-18T21:00:23.446Z,78.43
2023-04-18T21:02:49.996Z,77.79
2023-04-18T21:05:16.499Z,77.90
2023-04-18T21:07:44.080Z,77.76
2023-04-18T21:10:12.153Z,77.92
2023-04-18T21:12:38.572Z,77.66
2023-04-18T21:15:05.621Z,77.82
2023-04-18T21:17:32.130Z,77.56
2023-04-18T21:19:58.571Z,77.99
2023-04-18T21:22:25.083Z,78.03
2023-04-18T21:24:51.511Z,78.47
2023-04-18T21:27:17.933Z,78.32
2023-04-18T21:29:44.373Z,78.78
2023-04-18T21:32:10.802Z,78.65
2023-04-18T21:34:37.272Z,78.84
2023-04-18T21:37:03.727Z,78.40
2023-04-18T21:39:30.113Z,79.21
2023-04-18T21:41:57.125Z,79.05
2023-04-18T21:44:23.574Z,78.95
2023-04-18T21:46:49.996Z,79.47
2023-04-18T21:49:16.518Z,79.09
2023-04-18T21:51:43.314Z,79.79
2023-04-18T21:54:09.740Z,79.93
2023-04-18T21:56:36.140Z,79.85
2023-04-18T21:59:02.516Z,79.96
2023-04-18T22:01:29.050Z,80.04
2023-04-18T22:03:56.045Z,79.90
2023-04-18T22:06:23.225Z,80.31
2023-04-18T22:08:49.984Z,80.84
2023-04-18T22:11:16.418Z,81.15
2023-04-18T22:13:44.929Z,81.03
2023-04-18T22:16:11.975Z,81.31
2023-04-18T22:18:38.424Z,81.69
2023-04-18T22:21:04.880Z,82.26
2023-04-18T22:23:31.403Z,82.99
2023-04-18T22:25:57.845Z,83.30
2023-04-18T22:28:24.441Z,83.30
2023-04-18T22:30:51.184Z,83.59
2023-04-18T22:33:17.595Z,83.37
2023-04-18T22:35:44.069Z,83.48
2023-04-18T22:38:10.497Z,83.54
2023-04-18T22:40:36.959Z,83.48
2023-04-18T22:43:03.470Z,83.86
2023-04-18T22:45:29.854Z,84.10
2023-04-18T22:47:56.358Z,84.10
2023-04-18T22:50:22.854Z,84.08
2023-04-18T22:52:50.514Z,84.03
2023-04-18T22:55:17.391Z,84.31
2023-04-18T22:57:43.836Z,85.27
2023-04-18T23:00:11.034Z,85.37
2023-04-18T23:02:37.765Z,85.46
2023-04-18T23:05:06.857Z,85.26
2023-04-18T23:07:33.338Z,85.70
2023-04-18T23:09:59.705Z,86.00
2023-04-18T23:12:26.795Z,86.10
2023-04-18T23:14:53.240Z,86.18
2023-04-18T23:17:19.685Z,86.73
2023-04-18T23:19:46.216Z,86.53
2023-04-18T23:22:12.699Z,86.81
2023-04-18T23:24:39.064Z,86.80
2023-04-18T23:27:05.800Z,87.10
2023-04-18T23:29:36.619Z,87.34
2023-04-18T23:32:03.222Z,87.29
2023-04-18T23:34:29.670Z,86.91
2023-04-18T23:36:56.067Z,87.21
2023-04-18T23:39:24.218Z,87.20
2023-04-18T23:41:50.696Z,87.32
2023-04-18T23:44:17.166Z,87.22
2023-04-18T23:46:43.665Z,87.61
2023-04-18T23:49:10.390Z,88.23
2023-04-18T23:51:37.637Z,88.23
2023-04-18T23:54:04.088Z,88.65
2023-04-18T23:56:30.550Z,88.32
2023-04-18T23:58:57.369Z,88.89
